Main page
METAR-TAF:

Airports :

Munich, Germany

Munich Airport

latitude: 48-21N, longitude: 011-47E, elevation: 453 m

Current weather observation

The report was made 31 minutes ago, at 00:20 UTC
Wind 2 kt from the East/Northeast
Temperature 12°C
Humidity 100%
Pressure 1022 hPa
Visibility 10 km or more
Shallow fog

METAR: EDDM 250020Z 07002KT 9999 MIFG NSC 12/12 Q1022 NOSIG

Time: 02:51 (00:51 UTC)

Forecast

The report was made 1 hour and 51 minutes ago, at 23:00 UTC
Forecast valid from 25 at 00 UTC to 26 at 06 UTC
Wind 4 kt from the East/Northeast
Visibility 10 km or more
no clouds below 1500 m and no cumulonimbus
Becoming
from 25 at 06 UTC to 25 at 08 UTC
Wind 10 kt from the East
Becoming
from 25 at 16 UTC to 25 at 18 UTC
Wind 4 kt from the East

TAF: EDDM 242300Z 2500/2606 06004KT CAVOK BECMG 2506/2508 08010KT BECMG 2516/2518 09004KT

METAR-TAF

Weather observations and forecasts of more than 4000 airports (METAR and TAF reports).

The available stations are represented by yellow and red dots on the map.

Hover mouse over dot to see the name of the station.

Then click to see weather observations and forecasts.

To change the map : click on the green buttons with a black cross to zoom in, on the green button with a dash to zoom out, or on the green arrows for adjacent maps.


METAR-TAF: